sensor_id;sensor_type;location;lat;lon;timestamp;pressure;altitude;pressure_sealevel;temperature;humidity
17383;BME280;8809;51.892;8.384;2023-08-31T00:02:17;99771.28;;;13.42;100.00
17383;BME280;8809;51.892;8.384;2023-08-31T00:04:50;99777.41;;;13.43;100.00
17383;BME280;8809;51.892;8.384;2023-08-31T00:07:17;99771.28;;;13.42;100.00
17383;BME280;8809;51.892;8.384;2023-08-31T00:09:45;99780.88;;;13.42;100.00
17383;BME280;8809;51.892;8.384;2023-08-31T00:12:12;99775.53;;;13.37;100.00
17383;BME280;8809;51.892;8.384;2023-08-31T00:14:42;99769.44;;;13.35;100.00
17383;BME280;8809;51.892;8.384;2023-08-31T00:17:14;99771.19;;;13.37;100.00
17383;BME280;8809;51.892;8.384;2023-08-31T00:19:42;99777.25;;;13.33;100.00
17383;BME280;8809;51.892;8.384;2023-08-31T00:22:10;99781.53;;;13.30;100.00
17383;BME280;8809;51.892;8.384;2023-08-31T00:24:37;99772.75;;;13.26;100.00
17383;BME280;8809;51.892;8.384;2023-08-31T00:27:05;99775.31;;;13.23;100.00
17383;BME280;8809;51.892;8.384;2023-08-31T00:29:32;99777.00;;;13.20;100.00
17383;BME280;8809;51.892;8.384;2023-08-31T00:31:59;99782.13;;;13.14;100.00
17383;BME280;8809;51.892;8.384;2023-08-31T00:34:26;99783.06;;;13.16;100.00
17383;BME280;8809;51.892;8.384;2023-08-31T00:36:57;99777.81;;;13.16;100.00
17383;BME280;8809;51.892;8.384;2023-08-31T00:39:27;99778.66;;;13.15;100.00
17383;BME280;8809;51.892;8.384;2023-08-31T00:42:04;99777.84;;;13.19;100.00
17383;BME280;8809;51.892;8.384;2023-08-31T00:44:32;99771.56;;;13.11;100.00
17383;BME280;8809;51.892;8.384;2023-08-31T00:47:00;99773.25;;;13.09;100.00
17383;BME280;8809;51.892;8.384;2023-08-31T00:49:28;99779.34;;;13.08;100.00
17383;BME280;8809;51.892;8.384;2023-08-31T00:51:57;99784.59;;;13.08;100.00
17383;BME280;8809;51.892;8.384;2023-08-31T00:54:25;99775.88;;;13.09;100.00
17383;BME280;8809;51.892;8.384;2023-08-31T00:56:53;99774.13;;;13.08;100.00
17383;BME280;8809;51.892;8.384;2023-08-31T00:59:20;99777.66;;;13.10;100.00
17383;BME280;8809;51.892;8.384;2023-08-31T01:01:54;99785.53;;;13.11;100.00
17383;BME280;8809;51.892;8.384;2023-08-31T01:04:29;99777.66;;;13.10;100.00
17383;BME280;8809;51.892;8.384;2023-08-31T01:07:06;99781.13;;;13.09;100.00
17383;BME280;8809;51.892;8.384;2023-08-31T01:09:43;99782.03;;;13.11;100.00
17383;BME280;8809;51.892;8.384;2023-08-31T01:12:16;99788.09;;;13.07;100.00
17383;BME280;8809;51.892;8.384;2023-08-31T01:14:50;99779.34;;;13.08;100.00
17383;BME280;8809;51.892;8.384;2023-08-31T01:17:23;99782.84;;;13.07;100.00
17383;BME280;8809;51.892;8.384;2023-08-31T01:19:52;99777.63;;;13.07;100.00
17383;BME280;8809;51.892;8.384;2023-08-31T01:22:29;99783.72;;;13.07;100.00
17383;BME280;8809;51.892;8.384;2023-08-31T01:25:01;99782.84;;;13.07;100.00
17383;BME280;8809;51.892;8.384;2023-08-31T01:27:30;99778.44;;;13.04;100.00
17383;BME280;8809;51.892;8.384;2023-08-31T01:29:59;99772.28;;;13.02;100.00
17383;BME280;8809;51.892;8.384;2023-08-31T01:32:26;99778.41;;;13.02;100.00
17383;BME280;8809;51.892;8.384;2023-08-31T01:34:54;99778.44;;;13.04;100.00
17383;BME280;8809;51.892;8.384;2023-08-31T01:37:29;99786.31;;;13.06;100.00
17383;BME280;8809;51.892;8.384;2023-08-31T01:40:03;99778.47;;;13.06;100.00
17383;BME280;8809;51.892;8.384;2023-08-31T01:42:36;99780.22;;;13.05;100.00
17383;BME280;8809;51.892;8.384;2023-08-31T01:45:06;99780.16;;;13.04;100.00
17383;BME280;8809;51.892;8.384;2023-08-31T01:47:34;99775.78;;;13.02;100.00
17383;BME280;8809;51.892;8.384;2023-08-31T01:50:01;99777.53;;;13.02;100.00
17383;BME280;8809;51.892;8.384;2023-08-31T01:52:28;99782.72;;;13.00;100.00
17383;BME280;8809;51.892;8.384;2023-08-31T01:54:56;99779.19;;;12.98;100.00
17383;BME280;8809;51.892;8.384;2023-08-31T01:57:25;99783.53;;;12.96;100.00
17383;BME280;8809;51.892;8.384;2023-08-31T01:59:52;99781.78;;;12.95;100.00
17383;BME280;8809;51.892;8.384;2023-08-31T02:02:19;99783.44;;;12.92;100.00
17383;BME280;8809;51.892;8.384;2023-08-31T02:04:48;99779.09;;;12.92;100.00
17383;BME280;8809;51.892;8.384;2023-08-31T02:07:18;99775.63;;;12.93;100.00
17383;BME280;8809;51.892;8.384;2023-08-31T02:09:48;99777.34;;;12.93;100.00
17383;BME280;8809;51.892;8.384;2023-08-31T02:12:15;99773.88;;;12.94;100.00
17383;BME280;8809;51.892;8.384;2023-08-31T02:14:43;99772.16;;;12.94;100.00
17383;BME280;8809;51.892;8.384;2023-08-31T02:17:10;99771.22;;;12.92;100.00
17383;BME280;8809;51.892;8.384;2023-08-31T02:19:38;99768.66;;;12.94;100.00
17383;BME280;8809;51.892;8.384;2023-08-31T02:22:05;99762.56;;;12.95;100.00
17383;BME280;8809;51.892;8.384;2023-08-31T02:24:32;99764.31;;;12.96;100.00
17383;BME280;8809;51.892;8.384;2023-08-31T02:26:59;99771.34;;;12.97;100.00
17383;BME280;8809;51.892;8.384;2023-08-31T02:29:26;99770.44;;;12.96;100.00
17383;BME280;8809;51.892;8.384;2023-08-31T02:31:55;99773.03;;;12.95;100.00
17383;BME280;8809;51.892;8.384;2023-08-31T02:34:22;99766.88;;;12.93;100.00
17383;BME280;8809;51.892;8.384;2023-08-31T02:36:49;99775.63;;;12.93;100.00
17383;BME280;8809;51.892;8.384;2023-08-31T02:39:16;99783.50;;;12.95;100.00
17383;BME280;8809;51.892;8.384;2023-08-31T02:41:45;99794.88;;;12.95;100.00
17383;BME280;8809;51.892;8.384;2023-08-31T02:44:13;99785.28;;;12.96;100.00
17383;BME280;8809;51.892;8.384;2023-08-31T02:46:41;99785.28;;;12.96;100.00
17383;BME280;8809;51.892;8.384;2023-08-31T02:49:11;99786.97;;;12.94;100.00
17383;BME280;8809;51.892;8.384;2023-08-31T02:51:38;99783.47;;;12.93;100.00
17383;BME280;8809;51.892;8.384;2023-08-31T02:54:05;99782.56;;;12.91;100.00
17383;BME280;8809;51.892;8.384;2023-08-31T02:56:32;99784.31;;;12.92;100.00
17383;BME280;8809;51.892;8.384;2023-08-31T02:58:59;99775.53;;;12.90;100.00
17383;BME280;8809;51.892;8.384;2023-08-31T03:01:26;99779.91;;;12.90;100.00
17383;BME280;8809;51.892;8.384;2023-08-31T03:03:58;99787.75;;;12.90;100.00
17383;BME280;8809;51.892;8.384;2023-08-31T03:06:27;99789.50;;;12.89;100.00
17383;BME280;8809;51.892;8.384;2023-08-31T03:08:54;99792.94;;;12.87;100.00
17383;BME280;8809;51.892;8.384;2023-08-31T03:11:21;99778.06;;;12.84;100.00
17383;BME280;8809;51.892;8.384;2023-08-31T03:13:48;99775.41;;;12.83;100.00
17383;BME280;8809;51.892;8.384;2023-08-31T03:16:15;99784.06;;;12.80;100.00
17383;BME280;8809;51.892;8.384;2023-08-31T03:18:43;99785.81;;;12.80;100.00
17383;BME280;8809;51.892;8.384;2023-08-31T03:21:10;99783.16;;;12.77;100.00
17383;BME280;8809;51.892;8.384;2023-08-31T03:23:38;99778.81;;;12.77;100.00
17383;BME280;8809;51.892;8.384;2023-08-31T03:26:08;99788.31;;;12.74;100.00
17383;BME280;8809;51.892;8.384;2023-08-31T03:28:36;99773.44;;;12.71;100.00
17383;BME280;8809;51.892;8.384;2023-08-31T03:31:04;99782.13;;;12.70;100.00
17383;BME280;8809;51.892;8.384;2023-08-31T03:33:31;99780.34;;;12.68;100.00
17383;BME280;8809;51.892;8.384;2023-08-31T03:36:00;99783.84;;;12.68;100.00
17383;BME280;8809;51.892;8.384;2023-08-31T03:38:32;99782.03;;;12.64;100.00
17383;BME280;8809;51.892;8.384;2023-08-31T03:41:05;99790.72;;;12.63;100.00
17383;BME280;8809;51.892;8.384;2023-08-31T03:43:33;99783.69;;;12.60;100.00
17383;BME280;8809;51.892;8.384;2023-08-31T03:46:02;99791.50;;;12.57;100.00
17383;BME280;8809;51.892;8.384;2023-08-31T03:48:30;99791.41;;;12.54;100.00
17383;BME280;8809;51.892;8.384;2023-08-31T03:50:57;99798.38;;;12.54;100.00
17383;BME280;8809;51.892;8.384;2023-08-31T03:53:24;99804.47;;;12.53;100.00
17383;BME280;8809;51.892;8.384;2023-08-31T03:55:51;99806.22;;;12.54;100.00
17383;BME280;8809;51.892;8.384;2023-08-31T03:58:20;99805.34;;;12.53;100.00
17383;BME280;8809;51.892;8.384;2023-08-31T04:00:49;99806.16;;;12.51;100.00
17383;BME280;8809;51.892;8.384;2023-08-31T04:03:16;99816.63;;;12.51;100.00
17383;BME280;8809;51.892;8.384;2023-08-31T04:05:43;99817.47;;;12.50;100.00
17383;BME280;8809;51.892;8.384;2023-08-31T04:08:10;99824.47;;;12.49;100.00
17383;BME280;8809;51.892;8.384;2023-08-31T04:10:37;99829.66;;;12.48;100.00
17383;BME280;8809;51.892;8.384;2023-08-31T04:13:04;99831.34;;;12.46;100.00
17383;BME280;8809;51.892;8.384;2023-08-31T04:15:33;99840.03;;;12.45;100.00
17383;BME280;8809;51.892;8.384;2023-08-31T04:18:01;99828.66;;;12.43;100.00
17383;BME280;8809;51.892;8.384;2023-08-31T04:20:28;99836.50;;;12.43;100.00
17383;BME280;8809;51.892;8.384;2023-08-31T04:22:55;99840.91;;;12.44;100.00
17383;BME280;8809;51.892;8.384;2023-08-31T04:25:22;99843.44;;;12.41;100.00
17383;BME280;8809;51.892;8.384;2023-08-31T04:27:56;99836.47;;;12.40;100.00
17383;BME280;8809;51.892;8.384;2023-08-31T04:30:23;99840.81;;;12.41;100.00
17383;BME280;8809;51.892;8.384;2023-08-31T04:32:51;99848.63;;;12.38;100.00
17383;BME280;8809;51.892;8.384;2023-08-31T04:35:20;99852.88;;;12.34;100.00
17383;BME280;8809;51.892;8.384;2023-08-31T04:37:47;99847.63;;;12.33;100.00
17383;BME280;8809;51.892;8.384;2023-08-31T04:40:18;99851.19;;;12.36;100.00
17383;BME280;8809;51.892;8.384;2023-08-31T04:42:45;99849.47;;;12.37;100.00
17383;BME280;8809;51.892;8.384;2023-08-31T04:45:12;99846.84;;;12.37;100.00
17383;BME280;8809;51.892;8.384;2023-08-31T04:47:39;99848.50;;;12.33;100.00
17383;BME280;8809;51.892;8.384;2023-08-31T04:50:08;99849.38;;;12.34;100.00
17383;BME280;8809;51.892;8.384;2023-08-31T04:52:36;99851.22;;;12.38;100.00
17383;BME280;8809;51.892;8.384;2023-08-31T04:55:05;99847.69;;;12.36;100.00
17383;BME280;8809;51.892;8.384;2023-08-31T04:57:36;99852.81;;;12.30;100.00
17383;BME280;8809;51.892;8.384;2023-08-31T05:00:04;99844.88;;;12.26;100.00
17383;BME280;8809;51.892;8.384;2023-08-31T05:02:35;99849.25;;;12.27;100.00
17383;BME280;8809;51.892;8.384;2023-08-31T05:05:03;99850.94;;;12.25;100.00
17383;BME280;8809;51.892;8.384;2023-08-31T05:07:32;99859.50;;;12.18;100.00
17383;BME280;8809;51.892;8.384;2023-08-31T05:10:01;99861.28;;;12.19;100.00
17383;BME280;8809;51.892;8.384;2023-08-31T05:12:29;99859.56;;;12.21;100.00
17383;BME280;8809;51.892;8.384;2023-08-31T05:14:56;99864.03;;;12.25;100.00
17383;BME280;8809;51.892;8.384;2023-08-31T05:17:25;99871.94;;;12.29;100.00
17383;BME280;8809;51.892;8.384;2023-08-31T05:19:52;99871.88;;;12.25;100.00
17383;BME280;8809;51.892;8.384;2023-08-31T05:22:19;99878.78;;;12.23;100.00
17383;BME280;8809;51.892;8.384;2023-08-31T05:24:48;99874.44;;;12.24;100.00
17383;BME280;8809;51.892;8.384;2023-08-31T05:27:16;99882.28;;;12.24;100.00
17383;BME280;8809;51.892;8.384;2023-08-31T05:29:43;99884.94;;;12.25;100.00
17383;BME280;8809;51.892;8.384;2023-08-31T05:32:10;99885.88;;;12.27;100.00
17383;BME280;8809;51.892;8.384;2023-08-31T05:34:37;99889.34;;;12.26;100.00
17383;BME280;8809;51.892;8.384;2023-08-31T05:37:05;99883.13;;;12.23;100.00
17383;BME280;8809;51.892;8.384;2023-08-31T05:39:32;99884.91;;;12.24;100.00
17383;BME280;8809;51.892;8.384;2023-08-31T05:42:00;99883.97;;;12.22;100.00
17383;BME280;8809;51.892;8.384;2023-08-31T05:44:27;99883.19;;;12.24;100.00
17383;BME280;8809;51.892;8.384;2023-08-31T05:46:55;99884.94;;;12.25;100.00
17383;BME280;8809;51.892;8.384;2023-08-31T05:49:22;99890.31;;;12.30;100.00
17383;BME280;8809;51.892;8.384;2023-08-31T05:51:50;99883.28;;;12.29;100.00
17383;BME280;8809;51.892;8.384;2023-08-31T05:54:17;99887.72;;;12.33;100.00
17383;BME280;8809;51.892;8.384;2023-08-31T05:56:44;99881.78;;;12.39;100.00
17383;BME280;8809;51.892;8.384;2023-08-31T05:59:15;99880.94;;;12.40;100.00
17383;BME280;8809;51.892;8.384;2023-08-31T06:01:43;99890.69;;;12.47;100.00
17383;BME280;8809;51.892;8.384;2023-08-31T06:04:10;99889.88;;;12.51;100.00
17383;BME280;8809;51.892;8.384;2023-08-31T06:06:37;99890.03;;;12.57;100.00
17383;BME280;8809;51.892;8.384;2023-08-31T06:09:04;99888.94;;;12.47;100.00
17383;BME280;8809;51.892;8.384;2023-08-31T06:11:32;99905.56;;;12.51;100.00
17383;BME280;8809;51.892;8.384;2023-08-31T06:14:00;99897.72;;;12.49;100.00
17383;BME280;8809;51.892;8.384;2023-08-31T06:16:29;99898.56;;;12.48;100.00
17383;BME280;8809;51.892;8.384;2023-08-31T06:18:56;99906.41;;;12.48;100.00
17383;BME280;8809;51.892;8.384;2023-08-31T06:21:23;99890.75;;;12.51;100.00
17383;BME280;8809;51.892;8.384;2023-08-31T06:23:51;99903.00;;;12.52;100.00
17383;BME280;8809;51.892;8.384;2023-08-31T06:26:18;99909.19;;;12.56;100.00
17383;BME280;8809;51.892;8.384;2023-08-31T06:28:45;99904.03;;;12.59;100.00
17383;BME280;8809;51.892;8.384;2023-08-31T06:31:12;99905.84;;;12.63;100.00
17383;BME280;8809;51.892;8.384;2023-08-31T06:33:43;99908.59;;;12.69;100.00
17383;BME280;8809;51.892;8.384;2023-08-31T06:36:11;99909.56;;;12.73;100.00
17383;BME280;8809;51.892;8.384;2023-08-31T06:38:38;99920.13;;;12.77;100.00
17383;BME280;8809;51.892;8.384;2023-08-31T06:41:05;99912.28;;;12.77;100.00
17383;BME280;8809;51.892;8.384;2023-08-31T06:43:33;99921.97;;;12.81;100.00
17383;BME280;8809;51.892;8.384;2023-08-31T06:46:00;99919.31;;;12.80;100.00
17383;BME280;8809;51.892;8.384;2023-08-31T06:48:27;99922.03;;;12.84;100.00
17383;BME280;8809;51.892;8.384;2023-08-31T06:50:56;99921.25;;;12.90;100.00
17383;BME280;8809;51.892;8.384;2023-08-31T06:53:23;99914.38;;;12.93;100.00
17383;BME280;8809;51.892;8.384;2023-08-31T06:55:51;99924.06;;;12.97;100.00
17383;BME280;8809;51.892;8.384;2023-08-31T06:58:18;99917.09;;;12.99;100.00
17383;BME280;8809;51.892;8.384;2023-08-31T07:00:48;99923.19;;;12.98;100.00
17383;BME280;8809;51.892;8.384;2023-08-31T07:03:15;99924.13;;;13.00;100.00
17383;BME280;8809;51.892;8.384;2023-08-31T07:05:43;99926.91;;;13.10;100.00
17383;BME280;8809;51.892;8.384;2023-08-31T07:08:12;99929.53;;;13.10;100.00
17383;BME280;8809;51.892;8.384;2023-08-31T07:10:40;99921.69;;;13.10;100.00
17383;BME280;8809;51.892;8.384;2023-08-31T07:13:07;99927.94;;;13.15;100.00
17383;BME280;8809;51.892;8.384;2023-08-31T07:15:35;99922.84;;;13.22;100.00
17383;BME280;8809;51.892;8.384;2023-08-31T07:18:03;99928.25;;;13.30;100.00
17383;BME280;8809;51.892;8.384;2023-08-31T07:20:30;99929.22;;;13.36;100.00
17383;BME280;8809;51.892;8.384;2023-08-31T07:22:57;99932.88;;;13.43;100.00
17383;BME280;8809;51.892;8.384;2023-08-31T07:25:28;99939.06;;;13.48;100.00
17383;BME280;8809;51.892;8.384;2023-08-31T07:27:56;99940.13;;;13.58;100.00
17383;BME280;8809;51.892;8.384;2023-08-31T07:30:23;99941.19;;;13.67;100.00
17383;BME280;8809;51.892;8.384;2023-08-31T07:32:50;99945.69;;;13.73;100.00
17383;BME280;8809;51.892;8.384;2023-08-31T07:35:17;99936.19;;;13.80;100.00
17383;BME280;8809;51.892;8.384;2023-08-31T07:37:45;99952.06;;;13.89;100.00
17383;BME280;8809;51.892;8.384;2023-08-31T07:40:13;99956.47;;;13.90;100.00
17383;BME280;8809;51.892;8.384;2023-08-31T07:42:42;99951.31;;;13.96;100.00
17383;BME280;8809;51.892;8.384;2023-08-31T07:45:11;99951.41;;;14.00;100.00
17383;BME280;8809;51.892;8.384;2023-08-31T07:47:40;99956.69;;;14.03;100.00
17383;BME280;8809;51.892;8.384;2023-08-31T07:50:08;99956.00;;;14.12;100.00
17383;BME280;8809;51.892;8.384;2023-08-31T07:52:36;99952.53;;;14.16;100.00
17383;BME280;8809;51.892;8.384;2023-08-31T07:55:05;99952.56;;;14.18;100.00
17383;BME280;8809;51.892;8.384;2023-08-31T07:57:32;99959.69;;;14.26;100.00
17383;BME280;8809;51.892;8.384;2023-08-31T08:00:01;99965.84;;;14.27;100.00
17383;BME280;8809;51.892;8.384;2023-08-31T08:02:28;99966.78;;;14.30;100.00
17383;BME280;8809;51.892;8.384;2023-08-31T08:04:56;99963.25;;;14.28;100.00
17383;BME280;8809;51.892;8.384;2023-08-31T08:07:23;99967.66;;;14.32;100.00
17383;BME280;8809;51.892;8.384;2023-08-31T08:09:50;99969.53;;;14.38;100.00
17383;BME280;8809;51.892;8.384;2023-08-31T08:12:18;99964.41;;;14.44;100.00
17383;BME280;8809;51.892;8.384;2023-08-31T08:14:45;99966.28;;;14.51;100.00
17383;BME280;8809;51.892;8.384;2023-08-31T08:17:14;99962.00;;;14.58;100.00
17383;BME280;8809;51.892;8.384;2023-08-31T08:19:44;99983.91;;;14.61;100.00
17383;BME280;8809;51.892;8.384;2023-08-31T08:22:11;99983.06;;;14.64;100.00
17383;BME280;8809;51.892;8.384;2023-08-31T08:24:38;99978.78;;;14.67;100.00
17383;BME280;8809;51.892;8.384;2023-08-31T08:27:06;99988.34;;;14.65;100.00
17383;BME280;8809;51.892;8.384;2023-08-31T08:29:33;99993.69;;;14.70;100.00
17383;BME280;8809;51.892;8.384;2023-08-31T08:32:00;99991.09;;;14.73;100.00
17383;BME280;8809;51.892;8.384;2023-08-31T08:34:30;99985.84;;;14.73;100.00
17383;BME280;8809;51.892;8.384;2023-08-31T08:36:58;99992.94;;;14.78;100.00
17383;BME280;8809;51.892;8.384;2023-08-31T08:39:25;99992.09;;;14.81;100.00
17383;BME280;8809;51.892;8.384;2023-08-31T08:41:54;100002.56;;;14.78;100.00
17383;BME280;8809;51.892;8.384;2023-08-31T08:44:25;99995.59;;;14.81;100.00
17383;BME280;8809;51.892;8.384;2023-08-31T08:46:52;100002.66;;;14.85;100.00
17383;BME280;8809;51.892;8.384;2023-08-31T08:49:21;99999.25;;;14.90;100.00
17383;BME280;8809;51.892;8.384;2023-08-31T08:51:51;100003.66;;;14.94;100.00
17383;BME280;8809;51.892;8.384;2023-08-31T08:54:20;99997.56;;;14.96;100.00
17383;BME280;8809;51.892;8.384;2023-08-31T08:56:48;100002.91;;;15.02;100.00
17383;BME280;8809;51.892;8.384;2023-08-31T08:59:16;100003.88;;;15.07;100.00
17383;BME280;8809;51.892;8.384;2023-08-31T09:01:45;100007.34;;;15.06;100.00
17383;BME280;8809;51.892;8.384;2023-08-31T09:04:13;100010.03;;;15.11;100.00
17383;BME280;8809;51.892;8.384;2023-08-31T09:06:41;100003.91;;;15.12;100.00
17383;BME280;8809;51.892;8.384;2023-08-31T09:09:10;100004.84;;;15.15;100.00
17383;BME280;8809;51.892;8.384;2023-08-31T09:11:39;100003.19;;;15.22;100.00
17383;BME280;8809;51.892;8.384;2023-08-31T09:14:17;99991.91;;;15.32;100.00
17383;BME280;8809;51.892;8.384;2023-08-31T09:16:46;99994.72;;;15.46;100.00
17383;BME280;8809;51.892;8.384;2023-08-31T09:19:20;99999.34;;;15.64;100.00
17383;BME280;8809;51.892;8.384;2023-08-31T09:21:48;99996.03;;;15.80;100.00
17383;BME280;8809;51.892;8.384;2023-08-31T09:24:17;100003.22;;;15.94;100.00
17383;BME280;8809;51.892;8.384;2023-08-31T09:26:45;100006.78;;;16.01;100.00
17383;BME280;8809;51.892;8.384;2023-08-31T09:29:12;100010.34;;;16.08;100.00
17383;BME280;8809;51.892;8.384;2023-08-31T09:31:44;100012.13;;;16.10;100.00
17383;BME280;8809;51.892;8.384;2023-08-31T09:34:12;100012.19;;;16.18;100.00
17383;BME280;8809;51.892;8.384;2023-08-31T09:36:39;100008.84;;;16.32;100.00
17383;BME280;8809;51.892;8.384;2023-08-31T09:39:08;100024.69;;;16.40;100.00
17383;BME280;8809;51.892;8.384;2023-08-31T09:41:52;100019.34;;;16.31;100.00
17383;BME280;8809;51.892;8.384;2023-08-31T09:44:22;100007.06;;;16.30;100.00
17383;BME280;8809;51.892;8.384;2023-08-31T09:46:50;100021.97;;;16.31;100.00
17383;BME280;8809;51.892;8.384;2023-08-31T09:49:21;100021.97;;;16.31;100.00
17383;BME280;8809;51.892;8.384;2023-08-31T09:51:49;100018.44;;;16.29;100.00
17383;BME280;8809;51.892;8.384;2023-08-31T09:54:19;100016.69;;;16.28;100.00
17383;BME280;8809;51.892;8.384;2023-08-31T09:56:49;100006.06;;;16.19;100.00
17383;BME280;8809;51.892;8.384;2023-08-31T09:59:19;100010.41;;;16.12;100.00
17383;BME280;8809;51.892;8.384;2023-08-31T10:01:50;100009.50;;;16.10;100.00
17383;BME280;8809;51.892;8.384;2023-08-31T10:04:18;100012.13;;;16.10;100.00
17383;BME280;8809;51.892;8.384;2023-08-31T10:06:46;100009.47;;;16.09;100.00
17383;BME280;8809;51.892;8.384;2023-08-31T10:09:14;100009.50;;;16.12;100.00
17383;BME280;8809;51.892;8.384;2023-08-31T10:11:45;100017.38;;;16.10;100.00
17383;BME280;8809;51.892;8.384;2023-08-31T10:14:15;100020.03;;;16.12;100.00
17383;BME280;8809;51.892;8.384;2023-08-31T10:16:44;100020.91;;;16.12;100.00
17383;BME280;8809;51.892;8.384;2023-08-31T10:19:12;100017.53;;;16.24;100.00
17383;BME280;8809;51.892;8.384;2023-08-31T10:21:40;100027.28;;;16.36;100.00
17383;BME280;8809;51.892;8.384;2023-08-31T10:24:09;100017.72;;;16.48;100.00
17383;BME280;8809;51.892;8.384;2023-08-31T10:26:37;100018.91;;;16.81;100.00
17383;BME280;8809;51.892;8.384;2023-08-31T10:29:27;100035.66;;;16.90;100.00
17383;BME280;8809;51.892;8.384;2023-08-31T10:32:00;100038.34;;;16.98;100.00
17383;BME280;8809;51.892;8.384;2023-08-31T10:34:36;100031.38;;;17.06;100.00
17383;BME280;8809;51.892;8.384;2023-08-31T10:37:19;100034.06;;;17.15;100.00
17383;BME280;8809;51.892;8.384;2023-08-31T10:39:48;100025.31;;;17.24;100.00
17383;BME280;8809;51.892;8.384;2023-08-31T10:42:16;100034.16;;;17.33;100.00
17383;BME280;8809;51.892;8.384;2023-08-31T10:44:45;100040.31;;;17.35;100.00
17383;BME280;8809;51.892;8.384;2023-08-31T10:47:13;100043.84;;;17.37;100.00
17383;BME280;8809;51.892;8.384;2023-08-31T10:49:50;100041.22;;;17.37;100.00
17383;BME280;8809;51.892;8.384;2023-08-31T10:52:19;100038.56;;;17.40;100.00
17383;BME280;8809;51.892;8.384;2023-08-31T10:54:47;100035.91;;;17.34;100.00
17383;BME280;8809;51.892;8.384;2023-08-31T10:57:16;100028.88;;;17.29;100.00
17383;BME280;8809;51.892;8.384;2023-08-31T10:59:47;100029.69;;;17.23;100.00
17383;BME280;8809;51.892;8.384;2023-08-31T11:02:31;100025.34;;;17.33;100.00
17383;BME280;8809;51.892;8.384;2023-08-31T11:05:02;100021.00;;;17.36;100.00
17383;BME280;8809;51.892;8.384;2023-08-31T11:07:31;100021.06;;;17.49;100.00
17383;BME280;8809;51.892;8.384;2023-08-31T11:10:08;100026.34;;;17.55;100.00
17383;BME280;8809;51.892;8.384;2023-08-31T11:12:36;100009.72;;;17.69;100.00
17383;BME280;8809;51.892;8.384;2023-08-31T11:15:11;100035.31;;;17.93;100.00
17383;BME280;8809;51.892;8.384;2023-08-31T11:17:42;100026.56;;;18.15;100.00
17383;BME280;8809;51.892;8.384;2023-08-31T11:20:16;100024.84;;;18.51;100.00
17383;BME280;8809;51.892;8.384;2023-08-31T11:22:45;100023.09;;;18.65;100.00
17383;BME280;8809;51.892;8.384;2023-08-31T11:25:14;100038.06;;;18.87;100.00
17383;BME280;8809;51.892;8.384;2023-08-31T11:27:53;100032.75;;;18.97;100.00
17383;BME280;8809;51.892;8.384;2023-08-31T11:30:22;100035.38;;;19.09;100.00
17383;BME280;8809;51.892;8.384;2023-08-31T11:32:51;100049.44;;;19.29;100.00
17383;BME280;8809;51.892;8.384;2023-08-31T11:35:19;100036.22;;;19.29;100.00
17383;BME280;8809;51.892;8.384;2023-08-31T11:37:49;100037.13;;;19.19;100.00
17383;BME280;8809;51.892;8.384;2023-08-31T11:40:17;100048.56;;;19.30;100.00
17383;BME280;8809;51.892;8.384;2023-08-31T11:42:44;100049.41;;;19.32;100.00
17383;BME280;8809;51.892;8.384;2023-08-31T11:45:20;100052.91;;;19.43;100.00
17383;BME280;8809;51.892;8.384;2023-08-31T11:47:50;100045.03;;;19.31;100.00
17383;BME280;8809;51.892;8.384;2023-08-31T11:50:18;100056.53;;;19.21;100.00
17383;BME280;8809;51.892;8.384;2023-08-31T11:52:46;100041.53;;;19.15;100.00
17383;BME280;8809;51.892;8.384;2023-08-31T11:55:20;100045.91;;;19.24;100.00
17383;BME280;8809;51.892;8.384;2023-08-31T11:57:49;100040.59;;;19.35;100.00
17383;BME280;8809;51.892;8.384;2023-08-31T12:00:18;100036.16;;;19.52;100.00
17383;BME280;8809;51.892;8.384;2023-08-31T12:02:56;100052.84;;;19.77;100.00
17383;BME280;8809;51.892;8.384;2023-08-31T12:05:27;100041.28;;;19.99;100.00
17383;BME280;8809;51.892;8.384;2023-08-31T12:07:57;100042.94;;;20.11;100.00
17383;BME280;8809;51.892;8.384;2023-08-31T12:10:25;100052.69;;;20.04;100.00
17383;BME280;8809;51.892;8.384;2023-08-31T12:13:07;100045.84;;;19.70;100.00
17383;BME280;8809;51.892;8.384;2023-08-31T12:15:38;100048.50;;;19.44;100.00
17383;BME280;8809;51.892;8.384;2023-08-31T12:18:10;100038.81;;;19.52;100.00
17383;BME280;8809;51.892;8.384;2023-08-31T12:20:43;100074.06;;;19.64;100.00
17383;BME280;8809;51.892;8.384;2023-08-31T12:23:11;100052.00;;;19.70;100.00
17383;BME280;8809;51.892;8.384;2023-08-31T12:25:45;100057.25;;;19.75;100.00
17383;BME280;8809;51.892;8.384;2023-08-31T12:28:16;100050.13;;;19.92;100.00
17383;BME280;8809;51.892;8.384;2023-08-31T12:30:49;100036.81;;;20.01;100.00
17383;BME280;8809;51.892;8.384;2023-08-31T12:33:18;100045.69;;;19.97;100.00
17383;BME280;8809;51.892;8.384;2023-08-31T12:35:46;100048.28;;;20.05;100.00
17383;BME280;8809;51.892;8.384;2023-08-31T12:38:14;100048.34;;;19.91;100.00
17383;BME280;8809;51.892;8.384;2023-08-31T12:40:42;100037.81;;;19.82;100.00
17383;BME280;8809;51.892;8.384;2023-08-31T12:43:09;100045.84;;;19.67;100.00
17383;BME280;8809;51.892;8.384;2023-08-31T12:45:38;100059.06;;;19.65;100.00
17383;BME280;8809;51.892;8.384;2023-08-31T12:48:05;100054.69;;;19.56;100.00
17383;BME280;8809;51.892;8.384;2023-08-31T12:50:34;100047.56;;;19.77;100.00
17383;BME280;8809;51.892;8.384;2023-08-31T12:53:02;100043.94;;;19.93;100.00
17383;BME280;8809;51.892;8.384;2023-08-31T12:55:29;100065.94;;;20.02;98.36
17383;BME280;8809;51.892;8.384;2023-08-31T12:57:57;100057.94;;;20.10;99.45
17383;BME280;8809;51.892;8.384;2023-08-31T13:00:25;100051.66;;;20.31;100.00
17383;BME280;8809;51.892;8.384;2023-08-31T13:02:53;100055.97;;;20.49;100.00
17383;BME280;8809;51.892;8.384;2023-08-31T13:05:20;100047.19;;;20.41;100.00
17383;BME280;8809;51.892;8.384;2023-08-31T13:07:50;100056.06;;;20.30;100.00